Time;durP1;ratioP1;P1;durP2;ratioP2;P2;SDS_P1;SDS_P2;PMS_P1;PMS_P2;Temp;Humidity;BMP_temperature;BMP_pressure;BME280_temperature;BME280_humidity;BME280_pressure;Samples;Min_cycle;Max_cycle;Signal;HPM_P1;HPM_P2
2022/09/22 00:01:04;;;;;;;5.97;3.13;;;6.30;98.00;;;;;;5051361;28;20017;-64
2022/09/22 00:03:35;;;;;;;6.13;3.63;;;6.10;98.00;;;;;;5050878;28;20029;-64
2022/09/22 00:06:10;;;;;;;7.75;3.80;;;5.90;98.00;;;;;;5041287;28;20026;-64
2022/09/22 00:08:41;;;;;;;5.68;3.45;;;5.60;98.00;;;;;;5050033;28;20036;-64
2022/09/22 00:11:12;;;;;;;6.43;3.88;;;5.40;98.00;;;;;;5048412;28;20433;-66
2022/09/22 00:13:40;;;;;;;8.85;3.97;;;5.30;98.00;;;;;;5043910;28;20040;-65
2022/09/22 00:16:15;;;;;;;6.45;3.75;;;5.30;98.00;;;;;;5048217;28;20074;-65
2022/09/22 00:18:43;;;;;;;6.82;3.72;;;5.30;98.00;;;;;;5052078;28;20017;-65
2022/09/22 00:21:11;;;;;;;7.60;4.28;;;5.30;98.00;;;;;;5044540;28;20112;-65
2022/09/22 00:23:41;;;;;;;6.20;3.55;;;5.20;98.00;;;;;;5044338;28;20078;-66
2022/09/22 00:26:12;;;;;;;6.65;4.15;;;5.10;98.00;;;;;;5047358;28;20025;-65
2022/09/22 00:28:40;;;;;;;6.53;4.28;;;5.10;98.00;;;;;;5053784;28;20036;-65
2022/09/22 00:31:16;;;;;;;6.68;3.97;;;5.00;98.00;;;;;;5053715;28;20036;-65
2022/09/22 00:33:42;;;;;;;7.00;3.75;;;5.00;98.00;;;;;;5030142;28;20021;-65
2022/09/22 00:36:08;;;;;;;8.52;4.13;;;4.90;98.00;;;;;;5049199;28;20524;-64
2022/09/22 00:38:36;;;;;;;7.85;3.72;;;4.90;98.00;;;;;;5045849;28;20048;-65
2022/09/22 00:41:09;;;;;;;6.65;4.20;;;4.80;98.00;;;;;;5040222;28;20025;-65
2022/09/22 00:43:37;;;;;;;6.18;4.15;;;4.90;98.00;;;;;;5044203;28;20032;-65
2022/09/22 00:46:21;;;;;;;8.40;4.60;;;4.80;98.00;;;;;;5032067;28;20115;-65
2022/09/22 00:48:57;;;;;;;8.20;4.70;;;4.90;98.00;;;;;;5048398;28;20029;-65
2022/09/22 00:51:27;;;;;;;7.45;4.70;;;5.00;98.00;;;;;;5043376;28;20045;-64
2022/09/22 00:53:55;;;;;;;7.43;4.47;;;5.00;98.00;;;;;;5047936;28;20025;-65
2022/09/22 00:56:27;;;;;;;7.78;4.20;;;4.90;98.00;;;;;;5045014;28;20410;-64
2022/09/22 00:59:00;;;;;;;7.88;4.45;;;4.90;98.00;;;;;;5044727;28;20033;-64
2022/09/22 01:01:25;;;;;;;6.97;4.60;;;4.80;98.00;;;;;;5046506;28;20044;-65
2022/09/22 01:03:53;;;;;;;9.48;5.13;;;4.80;98.00;;;;;;5039953;28;20034;-65
2022/09/22 01:06:23;;;;;;;7.80;4.30;;;4.80;97.80;;;;;;5042597;28;20044;-65
2022/09/22 01:08:49;;;;;;;7.47;4.50;;;4.90;98.00;;;;;;5049119;28;20334;-65
2022/09/22 01:11:19;;;;;;;8.32;5.25;;;4.90;98.00;;;;;;5044477;28;20029;-65
2022/09/22 01:13:53;;;;;;;7.82;5.35;;;4.80;98.00;;;;;;5049372;28;20185;-66
2022/09/22 01:16:53;;;;;;;7.40;4.80;;;4.80;98.00;;;;;;5043257;28;20026;-65
2022/09/22 01:19:25;;;;;;;7.65;4.85;;;4.60;98.00;;;;;;5049100;28;20071;-65
2022/09/22 01:21:58;;;;;;;8.63;5.38;;;4.50;98.00;;;;;;5049751;28;20361;-64
2022/09/22 01:24:54;;;;;;;7.55;5.03;;;4.30;97.80;;;;;;5025425;28;20033;-64
2022/09/22 01:27:46;;;;;;;9.18;5.45;;;4.20;97.20;;;;;;5040718;28;20052;-64
2022/09/22 01:30:36;;;;;;;9.48;5.68;;;4.20;96.80;;;;;;5046528;28;20029;-65
2022/09/22 01:33:40;;;;;;;8.98;5.10;;;4.10;96.50;;;;;;5041113;28;20110;-65
2022/09/22 01:36:11;;;;;;;7.50;5.47;;;4.00;95.50;;;;;;5048808;28;20033;-64
2022/09/22 01:39:08;;;;;;;12.55;5.55;;;4.00;95.60;;;;;;5044000;28;20123;-65
2022/09/22 01:41:47;;;;;;;8.95;5.90;;;3.90;94.70;;;;;;5050467;28;20449;-63
2022/09/22 01:44:31;;;;;;;10.57;5.60;;;3.90;94.50;;;;;;5051187;28;20366;-65
2022/09/22 01:47:34;;;;;;;8.27;5.75;;;3.80;94.40;;;;;;5041720;28;20018;-64
2022/09/22 01:50:06;;;;;;;9.10;5.75;;;3.80;93.60;;;;;;4992462;28;20029;-65
2022/09/22 01:52:35;;;;;;;9.52;6.00;;;3.80;94.20;;;;;;5046225;28;20021;-65
2022/09/22 01:55:04;;;;;;;8.90;5.75;;;3.70;93.70;;;;;;5046619;28;20025;-64
2022/09/22 01:57:40;;;;;;;8.82;5.35;;;3.60;93.10;;;;;;5052039;28;20029;-65
2022/09/22 02:00:09;;;;;;;10.27;5.88;;;3.60;92.70;;;;;;5047356;28;20098;-65
2022/09/22 02:02:50;;;;;;;11.85;5.90;;;3.60;92.80;;;;;;5046835;28;20647;-65
2022/09/22 02:05:39;;;;;;;9.43;5.53;;;3.50;92.40;;;;;;5060428;28;20025;-65
2022/09/22 02:08:44;;;;;;;10.73;5.88;;;3.50;92.10;;;;;;5029891;28;20038;-64
2022/09/22 02:11:15;;;;;;;10.57;5.78;;;3.50;91.40;;;;;;5041879;28;20040;-65
2022/09/22 02:13:42;;;;;;;10.23;6.13;;;3.60;91.30;;;;;;5051481;28;20033;-64
2022/09/22 02:16:10;;;;;;;10.95;7.38;;;3.60;91.10;;;;;;5043065;28;20320;-65
2022/09/22 02:19:04;;;;;;;8.25;5.45;;;3.60;91.40;;;;;;5047885;28;20033;-66
2022/09/22 02:21:30;;;;;;;7.97;5.10;;;3.50;90.90;;;;;;5052389;28;20082;-64
2022/09/22 02:23:56;;;;;;;11.32;5.18;;;3.50;91.20;;;;;;5039830;28;20030;-65
2022/09/22 02:26:29;;;;;;;8.93;5.38;;;3.40;91.40;;;;;;5046471;28;20040;-65
2022/09/22 02:29:01;;;;;;;10.23;5.88;;;3.30;91.30;;;;;;5045572;28;20425;-65
2022/09/22 02:31:30;;;;;;;9.93;5.97;;;3.30;90.60;;;;;;5045077;28;20049;-64
2022/09/22 02:33:56;;;;;;;7.07;4.35;;;3.20;90.90;;;;;;5046841;28;20112;-65
2022/09/22 02:36:31;;;;;;;8.35;4.57;;;3.00;90.20;;;;;;5050553;28;20099;-64
2022/09/22 02:39:11;;;;;;;9.25;4.38;;;3.00;89.40;;;;;;5047003;28;20034;-64
2022/09/22 02:41:59;;;;;;;10.05;5.28;;;3.00;88.80;;;;;;5048643;28;20056;-64
2022/09/22 02:44:48;;;;;;;11.60;6.95;;;3.00;87.80;;;;;;5050592;28;20036;-65
2022/09/22 02:47:33;;;;;;;10.45;6.10;;;3.00;88.40;;;;;;5040444;28;20053;-64
2022/09/22 02:49:59;;;;;;;;;;;3.00;87.30;;;;;;5051280;28;20017;-64
2022/09/22 02:52:25;;;;;;;12.65;6.13;;;3.00;87.70;;;;;;5051633;28;19922;-64
2022/09/22 02:54:53;;;;;;;12.15;6.25;;;3.10;85.80;;;;;;5035177;28;20112;-64
2022/09/22 02:57:19;;;;;;;10.95;6.57;;;3.00;87.00;;;;;;5049815;28;20025;-64
2022/09/22 02:59:45;;;;;;;11.23;6.10;;;2.90;86.40;;;;;;5054414;28;20045;-64
2022/09/22 03:02:11;;;;;;;10.30;5.75;;;2.90;85.90;;;;;;5052215;28;20060;-64
2022/09/22 03:04:39;;;;;;;9.02;5.72;;;2.80;86.60;;;;;;5047079;28;20431;-67
2022/09/22 03:07:05;;;;;;;9.55;4.78;;;2.60;86.30;;;;;;5054995;28;20040;-66
2022/09/22 03:09:32;;;;;;;7.18;4.82;;;2.60;84.60;;;;;;5047721;28;20018;-65
2022/09/22 03:11:58;;;;;;;9.13;5.72;;;2.70;85.30;;;;;;5051928;28;20036;-65
2022/09/22 03:14:23;;;;;;;7.93;4.85;;;2.60;85.10;;;;;;5032145;28;20032;-65
2022/09/22 03:16:49;;;;;;;13.05;6.25;;;2.70;84.30;;;;;;5050138;28;20070;-65
2022/09/22 03:19:15;;;;;;;8.52;4.63;;;2.60;84.50;;;;;;5054332;28;20059;-64
2022/09/22 03:21:40;;;;;;;7.22;4.85;;;2.60;84.00;;;;;;5043262;28;20021;-65
2022/09/22 03:24:06;;;;;;;11.75;4.82;;;2.70;84.20;;;;;;5050851;28;20029;-64
2022/09/22 03:26:33;;;;;;;10.65;5.40;;;2.80;83.30;;;;;;5050315;28;20048;-63
2022/09/22 03:28:59;;;;;;;7.10;3.75;;;2.90;83.90;;;;;;5050238;28;20029;-64
2022/09/22 03:31:24;;;;;;;9.48;5.35;;;2.80;84.60;;;;;;5049857;28;20032;-64
2022/09/22 03:33:50;;;;;;;10.23;4.75;;;2.80;85.10;;;;;;5050089;28;20063;-64
2022/09/22 03:36:16;;;;;;;8.50;4.88;;;2.80;84.10;;;;;;5034139;28;20441;-64
2022/09/22 03:38:43;;;;;;;9.65;5.90;;;2.70;84.30;;;;;;5046168;28;20028;-65
2022/09/22 03:41:08;;;;;;;8.45;5.15;;;2.70;84.10;;;;;;5048876;28;20078;-64
2022/09/22 03:43:34;;;;;;;8.52;5.78;;;2.80;83.90;;;;;;5046569;28;20021;-64
2022/09/22 03:46:01;;;;;;;8.23;4.38;;;2.90;84.20;;;;;;5051044;28;20040;-65
2022/09/22 03:48:28;;;;;;;9.05;5.28;;;2.90;83.70;;;;;;5048001;28;20060;-64
2022/09/22 03:50:55;;;;;;;9.07;5.40;;;2.90;83.10;;;;;;5042237;28;20032;-65
2022/09/22 03:53:21;;;;;;;5.95;3.90;;;2.90;84.30;;;;;;5054031;28;20025;-65
2022/09/22 03:55:47;;;;;;;7.68;5.20;;;2.90;84.00;;;;;;5051814;28;20034;-64
2022/09/22 03:58:15;;;;;;;6.78;4.30;;;2.90;84.40;;;;;;5049254;28;20025;-64
2022/09/22 04:00:41;;;;;;;8.05;5.32;;;2.90;84.40;;;;;;5049693;28;20044;-63
2022/09/22 04:03:10;;;;;;;9.27;5.10;;;3.00;84.30;;;;;;5055157;28;20102;-62
2022/09/22 04:05:37;;;;;;;7.50;4.88;;;3.00;84.80;;;;;;5046974;28;20104;-62
2022/09/22 04:08:02;;;;;;;7.90;5.50;;;3.00;85.40;;;;;;5045174;28;20044;-64
2022/09/22 04:10:28;;;;;;;8.20;5.40;;;3.00;86.10;;;;;;5050948;28;20029;-65
2022/09/22 04:12:53;;;;;;;8.27;5.53;;;2.90;86.60;;;;;;5047400;28;20338;-65
2022/09/22 04:15:19;;;;;;;9.02;6.25;;;2.90;85.40;;;;;;5051872;28;20112;-65
2022/09/22 04:17:45;;;;;;;12.70;8.27;;;2.90;86.10;;;;;;5041375;28;20082;-65
2022/09/22 04:20:11;;;;;;;11.85;6.13;;;2.80;85.20;;;;;;5056106;28;20024;-65
2022/09/22 04:22:37;;;;;;;9.60;6.22;;;2.90;85.20;;;;;;5046308;28;20090;-65
2022/09/22 04:25:07;;;;;;;10.43;6.30;;;2.90;85.00;;;;;;5043159;28;20418;-65
2022/09/22 04:27:33;;;;;;;10.25;6.25;;;3.00;85.40;;;;;;5053609;28;20039;-65
2022/09/22 04:30:01;;;;;;;9.80;6.25;;;3.00;85.70;;;;;;5053742;28;20025;-66
2022/09/22 04:32:27;;;;;;;8.68;5.90;;;3.00;86.20;;;;;;5046148;28;20037;-65
2022/09/22 04:34:53;;;;;;;13.40;7.63;;;3.00;85.90;;;;;;5053507;28;20059;-65
2022/09/22 04:37:18;;;;;;;9.98;5.93;;;2.90;86.50;;;;;;5047621;28;20535;-65
2022/09/22 04:39:44;;;;;;;9.13;5.88;;;2.70;87.90;;;;;;5050275;28;20322;-65
2022/09/22 04:42:09;;;;;;;10.25;5.85;;;2.70;86.10;;;;;;5046664;28;20017;-65
2022/09/22 04:44:35;;;;;;;13.70;7.70;;;2.70;86.20;;;;;;5051312;28;20392;-65
2022/09/22 04:47:01;;;;;;;10.38;6.53;;;2.80;85.30;;;;;;5042926;28;20998;-65
2022/09/22 04:49:26;;;;;;;10.38;7.13;;;2.70;87.30;;;;;;5046371;28;20426;-65
2022/09/22 04:51:52;;;;;;;10.15;7.10;;;2.70;85.30;;;;;;5055331;28;20426;-65
2022/09/22 04:54:18;;;;;;;14.95;10.65;;;2.80;86.40;;;;;;5040856;28;20037;-65
2022/09/22 04:56:44;;;;;;;18.40;10.18;;;2.80;85.60;;;;;;5053579;28;20029;-65
2022/09/22 04:59:10;;;;;;;17.27;9.45;;;2.90;84.50;;;;;;5053436;28;20029;-65
2022/09/22 05:01:39;;;;;;;18.55;11.07;;;3.00;85.00;;;;;;5052981;28;20363;-65
2022/09/22 05:04:04;;;;;;;17.20;9.27;;;3.00;86.20;;;;;;5050784;28;20075;-65
2022/09/22 05:06:30;;;;;;;15.48;9.40;;;3.00;86.60;;;;;;5053441;28;20040;-65
2022/09/22 05:08:56;;;;;;;17.83;10.18;;;3.00;87.50;;;;;;5051882;28;20108;-65
2022/09/22 05:11:23;;;;;;;14.23;8.73;;;2.90;87.80;;;;;;5054212;28;20025;-65
2022/09/22 05:13:49;;;;;;;18.05;10.48;;;2.90;87.00;;;;;;5036369;28;20026;-65
2022/09/22 05:16:16;;;;;;;15.60;8.77;;;2.90;87.90;;;;;;5040878;28;20026;-64
2022/09/22 05:18:41;;;;;;;16.02;9.85;;;2.90;87.40;;;;;;5050781;28;20029;-65
2022/09/22 05:21:07;;;;;;;16.13;8.30;;;2.90;87.60;;;;;;5055106;28;20031;-65
2022/09/22 05:23:33;;;;;;;10.82;8.00;;;2.90;87.30;;;;;;5043489;28;20379;-65
2022/09/22 05:25:58;;;;;;;12.70;8.48;;;2.90;87.40;;;;;;5054558;28;20021;-65
2022/09/22 05:28:24;;;;;;;17.05;10.23;;;2.90;87.80;;;;;;5050050;28;20070;-65
2022/09/22 05:30:50;;;;;;;13.27;8.70;;;2.90;87.60;;;;;;5051057;28;20028;-65
2022/09/22 05:33:16;;;;;;;13.68;8.95;;;3.00;86.80;;;;;;5035668;28;20167;-65
2022/09/22 05:35:42;;;;;;;14.77;9.50;;;3.00;88.00;;;;;;5035578;28;20500;-65
2022/09/22 05:38:07;;;;;;;16.52;10.02;;;3.00;87.90;;;;;;5046049;28;20116;-65
2022/09/22 05:40:33;;;;;;;14.80;9.57;;;3.00;88.20;;;;;;5039126;28;20040;-65
2022/09/22 05:42:59;;;;;;;13.65;8.35;;;3.10;87.70;;;;;;5053386;28;20170;-65
2022/09/22 05:45:25;;;;;;;12.60;8.82;;;3.30;87.10;;;;;;5055415;28;20036;-64
2022/09/22 05:47:52;;;;;;;17.23;11.82;;;3.40;88.90;;;;;;5036164;28;20028;-64
2022/09/22 05:50:19;;;;;;;21.98;15.23;;;3.50;90.00;;;;;;5053217;28;20028;-64
2022/09/22 05:52:44;;;;;;;23.40;15.55;;;3.40;91.50;;;;;;5054708;28;20036;-63
2022/09/22 05:55:11;;;;;;;25.85;15.43;;;3.40;91.10;;;;;;5054003;28;20313;-63
2022/09/22 05:57:37;;;;;;;20.08;12.68;;;3.50;90.60;;;;;;5055376;28;20094;-63
2022/09/22 06:00:06;;;;;;;20.85;13.65;;;3.50;91.10;;;;;;5055389;28;20226;-65
2022/09/22 06:02:35;;;;;;;24.05;15.60;;;3.60;90.90;;;;;;5054474;28;20036;-66
2022/09/22 06:05:01;;;;;;;23.35;15.20;;;3.70;91.50;;;;;;5054541;28;20025;-65
2022/09/22 06:07:27;;;;;;;18.10;11.20;;;3.80;92.30;;;;;;5047247;28;20333;-65
2022/09/22 06:09:52;;;;;;;21.88;14.73;;;4.00;91.30;;;;;;5044727;28;20029;-65
2022/09/22 06:12:18;;;;;;;22.35;15.70;;;4.20;93.20;;;;;;5054333;28;20057;-65
2022/09/22 06:14:46;;;;;;;14.70;9.93;;;4.20;94.00;;;;;;5035873;28;20477;-65
2022/09/22 06:17:12;;;;;;;22.63;15.40;;;4.50;93.10;;;;;;5049553;28;20021;-65
2022/09/22 06:19:39;;;;;;;18.98;10.02;;;4.70;94.50;;;;;;5045121;28;20121;-65
2022/09/22 06:22:05;;;;;;;22.10;11.50;;;4.90;95.90;;;;;;5048864;28;20051;-66
2022/09/22 06:24:31;;;;;;;18.27;9.95;;;5.00;96.80;;;;;;5055335;28;20032;-65
2022/09/22 06:26:56;;;;;;;18.15;9.52;;;5.10;97.30;;;;;;5058874;28;20017;-65
2022/09/22 06:29:25;;;;;;;13.57;8.63;;;5.10;97.90;;;;;;5054249;28;20445;-65
2022/09/22 06:31:51;;;;;;;15.02;9.65;;;5.20;98.00;;;;;;5052474;28;20021;-65
2022/09/22 06:34:17;;;;;;;20.48;11.55;;;5.30;97.50;;;;;;5055793;28;20048;-65
2022/09/22 06:36:44;;;;;;;48.75;24.30;;;5.40;98.00;;;;;;5045142;28;20330;-65
2022/09/22 06:39:10;;;;;;;62.78;28.63;;;5.50;98.00;;;;;;5039042;28;20792;-64
2022/09/22 06:41:36;;;;;;;38.17;20.95;;;5.50;98.00;;;;;;5038081;28;20075;-65
2022/09/22 06:44:04;;;;;;;18.55;12.80;;;5.60;98.00;;;;;;5037954;28;20059;-65
2022/09/22 06:46:31;;;;;;;15.10;10.48;;;5.60;98.00;;;;;;5037425;28;21334;-64
2022/09/22 06:49:01;;;;;;;18.10;11.25;;;5.70;98.00;;;;;;5045560;28;20330;-64
2022/09/22 06:51:31;;;;;;;15.00;10.77;;;5.80;98.00;;;;;;5037534;28;20039;-64
2022/09/22 06:53:58;;;;;;;19.02;12.07;;;5.80;98.00;;;;;;5043086;28;20397;-65
2022/09/22 06:56:25;;;;;;;16.83;12.25;;;5.90;98.00;;;;;;5037882;28;20426;-64
2022/09/22 06:58:54;;;;;;;16.70;12.25;;;6.00;98.00;;;;;;5040286;28;20599;-65
2022/09/22 07:01:22;;;;;;;18.05;11.85;;;6.10;98.00;;;;;;5039377;28;20029;-65
2022/09/22 07:03:48;;;;;;;19.15;14.73;;;6.20;98.00;;;;;;5036560;28;20103;-65
2022/09/22 07:06:16;;;;;;;15.93;10.73;;;6.20;98.00;;;;;;5041965;28;20108;-65
2022/09/22 07:08:42;;;;;;;15.77;10.18;;;6.40;98.00;;;;;;5037383;28;20528;-64
2022/09/22 07:11:09;;;;;;;13.88;9.27;;;6.40;98.00;;;;;;5037678;28;20036;-65
2022/09/22 07:13:38;;;;;;;16.33;10.80;;;6.50;98.00;;;;;;5054582;28;20075;-65
2022/09/22 07:16:08;;;;;;;13.23;9.30;;;6.60;98.00;;;;;;5043212;28;20036;-64
2022/09/22 07:18:38;;;;;;;12.20;7.82;;;6.80;98.00;;;;;;5054404;28;20043;-64
2022/09/22 07:21:07;;;;;;;14.68;9.80;;;7.00;98.00;;;;;;5050799;28;20021;-65
2022/09/22 07:23:34;;;;;;;17.25;10.65;;;7.10;98.00;;;;;;5050139;28;20299;-64
2022/09/22 07:26:12;;;;;;;17.05;10.52;;;7.10;98.00;;;;;;5039387;28;20071;-65
2022/09/22 07:28:38;;;;;;;13.63;9.73;;;7.20;98.00;;;;;;5058165;28;20040;-65
2022/09/22 07:31:22;;;;;;;13.23;8.90;;;7.40;98.00;;;;;;5056940;28;20025;-65
2022/09/22 07:33:48;;;;;;;11.40;7.50;;;7.60;98.00;;;;;;5041285;28;20060;-65
2022/09/22 07:36:22;;;;;;;12.38;8.15;;;7.80;98.00;;;;;;5047192;28;20072;-64
2022/09/22 07:38:51;;;;;;;;;;;8.00;98.00;;;;;;5052272;28;20028;-65
2022/09/22 07:41:26;;;;;;;11.90;6.97;;;8.10;98.00;;;;;;5053768;28;19916;-65
2022/09/22 07:43:55;;;;;;;10.00;6.80;;;8.20;98.00;;;;;;5055398;28;20098;-65
2022/09/22 07:46:21;;;;;;;9.95;6.82;;;8.30;98.00;;;;;;5053145;28;20017;-65
2022/09/22 07:48:47;;;;;;;11.52;6.72;;;8.40;98.00;;;;;;5052490;28;20048;-65
2022/09/22 07:51:20;;;;;;;9.20;6.30;;;8.50;98.00;;;;;;5033457;28;20037;-65
2022/09/22 07:54:06;;;;;;;10.60;6.97;;;8.70;98.00;;;;;;5056308;28;20096;-66
2022/09/22 07:56:33;;;;;;;8.43;6.00;;;8.80;98.00;;;;;;5048385;28;20030;-65
2022/09/22 07:59:03;;;;;;;10.85;7.10;;;9.00;97.70;;;;;;5041725;28;20436;-65
2022/09/22 08:01:31;;;;;;;11.10;6.60;;;9.10;97.50;;;;;;5047237;28;20030;-65
2022/09/22 08:03:57;;;;;;;10.68;6.80;;;9.20;97.20;;;;;;5050416;28;20025;-65
2022/09/22 08:06:26;;;;;;;6.88;4.82;;;9.20;97.40;;;;;;5054477;28;20112;-65
2022/09/22 08:08:55;;;;;;;9.60;5.20;;;9.40;97.70;;;;;;5044713;28;20115;-65
2022/09/22 08:11:26;;;;;;;6.03;2.78;;;10.10;95.40;;;;;;5056388;28;20426;-64
2022/09/22 08:13:54;;;;;;;5.32;2.50;;;10.80;90.20;;;;;;5055778;28;20087;-65
2022/09/22 08:16:21;;;;;;;8.80;4.15;;;12.00;88.00;;;;;;5041523;28;20025;-65
2022/09/22 08:19:00;;;;;;;6.65;3.88;;;13.30;86.10;;;;;;5039318;28;20296;-65
2022/09/22 08:21:34;;;;;;;5.15;1.40;;;14.30;81.10;;;;;;5051167;28;20040;-65
2022/09/22 08:24:04;;;;;;;3.42;1.00;;;15.20;76.80;;;;;;5053029;28;20027;-65
2022/09/22 08:26:30;;;;;;;3.92;1.88;;;16.20;74.60;;;;;;5057115;28;20056;-65
2022/09/22 08:28:56;;;;;;;3.22;0.95;;;16.60;72.70;;;;;;5056722;28;20414;-66
2022/09/22 08:31:25;;;;;;;4.10;1.05;;;16.10;71.70;;;;;;5056764;28;20051;-65
2022/09/22 08:33:52;;;;;;;2.20;0.93;;;15.70;71.70;;;;;;5056549;28;20131;-65
2022/09/22 08:36:18;;;;;;;2.10;0.98;;;16.00;72.00;;;;;;5054696;28;20055;-65
2022/09/22 08:38:47;;;;;;;4.05;1.00;;;16.30;70.00;;;;;;5056647;28;20368;-65
2022/09/22 08:41:23;;;;;;;8.85;5.43;;;16.70;71.30;;;;;;5055442;28;20021;-65
2022/09/22 08:43:54;;;;;;;2.35;1.17;;;17.20;68.20;;;;;;5056506;28;20067;-65
2022/09/22 08:46:40;;;;;;;1.80;0.88;;;17.20;67.50;;;;;;5056056;28;20078;-65
2022/09/22 08:52:33;;;;;;;2.35;0.90;;;18.10;66.50;;;;;;5055067;28;20048;-65
2022/09/22 08:55:00;;;;;;;2.45;1.00;;;18.50;64.20;;;;;;5055130;28;20017;-67
2022/09/22 08:57:55;;;;;;;3.45;0.90;;;18.30;64.20;;;;;;5056268;28;20098;-66
2022/09/22 09:00:28;;;;;;;1.60;0.80;;;18.40;63.40;;;;;;5056353;28;20407;-66
2022/09/22 09:03:12;;;;;;;2.72;1.08;;;17.70;62.80;;;;;;5054812;28;20037;-65
2022/09/22 09:05:49;;;;;;;1.88;0.77;;;17.40;63.90;;;;;;5056107;28;20449;-65
2022/09/22 09:08:27;;;;;;;1.73;0.90;;;17.50;64.70;;;;;;5056018;28;20445;-65
2022/09/22 09:10:55;;;;;;;2.65;0.90;;;18.00;63.00;;;;;;5054976;28;20035;-65
2022/09/22 09:13:33;;;;;;;2.25;0.90;;;18.10;61.90;;;;;;5056092;28;20051;-65
2022/09/22 09:16:36;;;;;;;1.35;0.80;;;17.90;62.90;;;;;;5045808;28;20441;-65
2022/09/22 09:19:05;;;;;;;4.07;1.38;;;18.20;62.30;;;;;;5051611;28;20083;-65
2022/09/22 09:21:33;;;;;;;1.38;0.80;;;18.50;62.90;;;;;;5046399;28;20024;-66
2022/09/22 09:24:04;;;;;;;2.00;0.85;;;19.20;60.50;;;;;;5044473;28;20116;-65
2022/09/22 09:26:33;;;;;;;1.65;0.80;;;18.90;60.90;;;;;;5035885;28;20362;-64
2022/09/22 09:29:05;;;;;;;3.75;1.20;;;19.00;59.90;;;;;;5044670;28;20037;-65
2022/09/22 09:31:41;;;;;;;2.88;0.90;;;19.10;62.40;;;;;;5054829;28;20433;-65
2022/09/22 09:34:13;;;;;;;1.60;0.70;;;19.20;60.20;;;;;;5054754;28;20426;-65
2022/09/22 09:36:43;;;;;;;1.83;0.75;;;19.50;59.80;;;;;;5055758;28;20024;-65
2022/09/22 09:39:32;;;;;;;2.17;0.80;;;19.70;60.40;;;;;;5053804;28;20318;-65
2022/09/22 09:42:00;;;;;;;1.90;0.70;;;20.40;59.50;;;;;;5055714;28;20104;-65
2022/09/22 09:44:37;;;;;;;2.05;0.88;;;21.10;58.50;;;;;;5054351;28;20032;-65
2022/09/22 09:47:18;;;;;;;1.60;0.80;;;20.90;58.00;;;;;;5046860;28;20025;-65
2022/09/22 09:49:44;;;;;;;1.33;0.70;;;21.00;56.30;;;;;;5054738;28;20036;-65
2022/09/22 09:52:11;;;;;;;2.88;0.90;;;20.60;59.80;;;;;;5055591;28;20036;-65
2022/09/22 09:54:42;;;;;;;2.05;0.82;;;20.20;57.10;;;;;;5051248;28;20104;-65
2022/09/22 09:57:16;;;;;;;2.03;0.95;;;19.80;58.50;;;;;;5056835;28;20029;-65
2022/09/22 10:02:28;;;;;;;1.42;0.70;;;20.60;57.70;;;;;;5060009;28;19958;-65
2022/09/22 10:05:00;;;;;;;1.58;0.80;;;20.50;56.70;;;;;;5058777;28;20033;-65
2022/09/22 10:07:39;;;;;;;2.00;0.77;;;20.20;57.50;;;;;;5051466;28;20049;-64
2022/09/22 10:10:31;;;;;;;2.60;1.17;;;20.10;58.10;;;;;;5043548;28;20025;-65
2022/09/22 10:13:03;;;;;;;1.73;0.80;;;20.30;58.90;;;;;;5059096;28;20017;-65
2022/09/22 10:15:33;;;;;;;1.33;0.70;;;20.20;58.30;;;;;;5059330;28;20033;-65
2022/09/22 10:17:59;;;;;;;2.95;1.08;;;20.20;58.20;;;;;;5059298;28;20025;-65
2022/09/22 10:20:28;;;;;;;1.83;0.93;;;19.90;57.90;;;;;;5059360;28;20033;-65
2022/09/22 10:22:55;;;;;;;1.50;0.80;;;20.30;58.40;;;;;;5058193;28;20024;-65
2022/09/22 10:25:26;;;;;;;2.15;0.80;;;20.80;59.20;;;;;;5058065;28;20482;-65
2022/09/22 10:28:19;;;;;;;1.33;0.73;;;20.70;58.80;;;;;;5059221;28;20033;-65
2022/09/22 10:30:59;;;;;;;2.92;0.80;;;20.40;56.50;;;;;;5056202;28;20045;-65
2022/09/22 10:33:25;;;;;;;1.25;0.70;;;20.80;57.70;;;;;;5057237;28;20024;-65
2022/09/22 10:36:04;;;;;;;2.42;0.70;;;20.90;57.40;;;;;;5058930;28;20076;-64
2022/09/22 10:38:37;;;;;;;1.70;0.85;;;21.20;55.50;;;;;;5058983;28;20111;-64
2022/09/22 10:41:09;;;;;;;1.60;0.80;;;21.20;55.80;;;;;;5057743;28;20033;-64
2022/09/22 10:43:58;;;;;;;2.05;0.80;;;21.10;57.10;;;;;;5058845;28;20464;-65
2022/09/22 10:46:51;;;;;;;1.50;0.65;;;21.20;54.70;;;;;;5057425;28;20410;-64
2022/09/22 10:49:45;;;;;;;2.50;0.88;;;21.00;54.80;;;;;;5058763;28;20082;-65
2022/09/22 10:52:22;;;;;;;2.00;0.80;;;20.90;55.40;;;;;;5017871;28;20433;-64
2022/09/22 10:55:06;;;;;;;2.15;0.90;;;20.70;56.10;;;;;;5057467;28;20024;-64
2022/09/22 10:57:54;;;;;;;1.55;0.70;;;20.90;55.70;;;;;;5058671;28;20501;-64
2022/09/22 11:00:25;;;;;;;1.27;0.65;;;21.30;55.80;;;;;;5054340;28;20029;-64
2022/09/22 11:03:28;;;;;;;1.50;0.70;;;21.80;55.20;;;;;;5055385;28;20025;-65
2022/09/22 11:12:16;;;;;;;1.65;0.80;;;22.10;52.20;;;;;;5057305;28;20036;-65
2022/09/22 11:14:48;;;;;;;1.55;0.80;;;21.90;54.70;;;;;;5058215;28;20040;-64
2022/09/22 11:17:52;;;;;;;1.58;0.63;;;22.30;52.90;;;;;;5057680;28;20107;-64
2022/09/22 11:20:37;;;;;;;1.15;0.68;;;22.10;53.20;;;;;;5057181;28;20021;-64
2022/09/22 11:23:24;;;;;;;2.35;0.85;;;21.90;53.00;;;;;;5057369;28;20025;-64
2022/09/22 11:26:11;;;;;;;3.00;1.02;;;22.10;54.10;;;;;;5056991;28;20315;-64
2022/09/22 11:28:54;;;;;;;2.63;0.75;;;22.40;52.90;;;;;;5057345;28;20033;-65
2022/09/22 11:31:41;;;;;;;1.20;0.53;;;22.50;51.00;;;;;;5058044;28;20029;-64
2022/09/22 11:34:17;;;;;;;1.58;0.77;;;22.60;52.50;;;;;;5056186;28;20712;-64
2022/09/22 11:36:51;;;;;;;1.45;0.70;;;22.20;53.60;;;;;;5058058;28;20040;-65
2022/09/22 11:39:20;;;;;;;1.75;0.80;;;22.20;52.70;;;;;;5056461;28;20318;-64
2022/09/22 11:41:59;;;;;;;1.58;0.80;;;22.20;51.90;;;;;;5057627;28;20052;-63
2022/09/22 11:44:57;;;;;;;2.15;0.80;;;21.70;52.90;;;;;;5046738;28;20310;-63
2022/09/22 11:47:51;;;;;;;2.75;0.80;;;21.20;55.30;;;;;;5057332;28;20033;-64
2022/09/22 11:50:38;;;;;;;2.10;0.90;;;20.90;55.90;;;;;;5023390;28;20029;-67
2022/09/22 11:53:12;;;;;;;2.65;1.10;;;21.20;54.80;;;;;;5055237;28;20037;-65
2022/09/22 11:55:56;;;;;;;2.08;0.80;;;21.10;55.60;;;;;;5053864;28;20029;-65
2022/09/22 11:58:26;;;;;;;4.38;1.00;;;21.20;54.90;;;;;;5057508;28;20033;-65
2022/09/22 12:01:18;;;;;;;2.13;0.90;;;21.40;54.80;;;;;;5051369;28;20040;-64
2022/09/22 12:04:00;;;;;;;1.50;0.85;;;21.30;55.10;;;;;;5041907;28;20379;-64
2022/09/22 12:06:35;;;;;;;1.58;0.63;;;21.20;53.60;;;;;;5057209;28;20021;-65
2022/09/22 12:09:26;;;;;;;3.40;0.82;;;21.30;52.80;;;;;;5054259;28;20029;-64
2022/09/22 12:11:55;;;;;;;1.92;0.90;;;21.40;55.80;;;;;;5057218;28;20036;-64
2022/09/22 12:14:21;;;;;;;1.92;0.80;;;21.40;54.80;;;;;;5053243;28;20055;-64
2022/09/22 12:16:59;;;;;;;2.10;0.90;;;21.10;54.70;;;;;;5056997;28;20393;-64
2022/09/22 12:19:39;;;;;;;1.77;0.90;;;20.80;54.90;;;;;;5052165;28;20434;-64
2022/09/22 12:22:30;;;;;;;4.00;0.90;;;20.40;55.60;;;;;;5053286;28;20029;-65
2022/09/22 12:24:55;;;;;;;2.97;1.00;;;20.40;57.60;;;;;;5048433;28;20029;-64
2022/09/22 12:27:22;;;;;;;1.92;0.82;;;20.70;57.10;;;;;;5043949;28;20025;-64
2022/09/22 12:29:57;;;;;;;1.83;0.90;;;21.00;56.60;;;;;;5052070;28;20423;-64
2022/09/22 12:32:32;;;;;;;2.05;0.93;;;21.10;57.30;;;;;;5054344;28;20132;-64
2022/09/22 12:34:59;;;;;;;2.03;0.90;;;21.00;54.40;;;;;;5055247;28;20124;-65
2022/09/22 12:37:45;;;;;;;2.20;1.00;;;21.10;56.70;;;;;;5055120;28;20032;-65
2022/09/22 12:40:13;;;;;;;2.05;0.98;;;21.10;54.90;;;;;;5053605;28;20470;-64
2022/09/22 12:42:43;;;;;;;1.90;0.80;;;21.10;56.30;;;;;;5042988;28;20029;-65
2022/09/22 12:45:19;;;;;;;1.70;0.80;;;21.00;56.30;;;;;;5051193;28;20588;-64
2022/09/22 12:47:53;;;;;;;3.25;0.85;;;20.40;54.70;;;;;;5038140;28;20064;-63
2022/09/22 12:50:22;;;;;;;;;;;19.80;57.90;;;;;;5053011;28;20068;-65
2022/09/22 12:52:49;;;;;;;2.22;0.90;;;19.80;58.20;;;;;;5056517;28;19908;-64
2022/09/22 12:55:17;;;;;;;2.38;1.00;;;19.50;57.20;;;;;;5054940;28;20074;-64
2022/09/22 12:57:49;;;;;;;2.45;0.93;;;19.50;57.00;;;;;;5044622;28;20031;-65
2022/09/22 13:00:19;;;;;;;1.70;0.90;;;19.60;57.60;;;;;;5048958;28;20033;-65
2022/09/22 13:02:46;;;;;;;3.15;1.00;;;19.90;58.70;;;;;;5037973;28;20045;-64
2022/09/22 13:05:26;;;;;;;4.18;1.00;;;19.90;57.20;;;;;;5039470;28;20053;-65
2022/09/22 13:07:54;;;;;;;2.28;0.80;;;20.00;58.10;;;;;;5055566;28;20029;-64
2022/09/22 13:10:26;;;;;;;1.50;0.80;;;20.20;55.90;;;;;;5054809;28;20428;-64
2022/09/22 13:13:10;;;;;;;1.40;0.80;;;20.20;57.30;;;;;;5055842;28;20094;-64
2022/09/22 13:15:50;;;;;;;5.22;1.00;;;20.20;58.30;;;;;;5037124;28;20026;-64
2022/09/22 13:18:37;;;;;;;2.13;0.90;;;20.50;58.10;;;;;;5047176;28;20029;-64
2022/09/22 13:21:11;;;;;;;2.95;1.10;;;20.70;55.70;;;;;;5046556;28;20079;-64
2022/09/22 13:23:52;;;;;;;1.92;0.95;;;20.50;55.30;;;;;;5055270;28;20032;-65
2022/09/22 13:26:27;;;;;;;2.90;0.98;;;20.40;56.20;;;;;;5053581;28;20295;-65
2022/09/22 13:29:14;;;;;;;2.35;1.10;;;20.50;54.00;;;;;;5055857;28;20100;-64